Главная страница
METAR-TAF:

METAR-TAF

Аэропорты :

Каир, Египет

широта: 30-08N, долгота: 031-24E, высота над уровнем моря: 64 м

Текущие метеонаблюдения

Эта сводка был подготовлена 14 минут назад, в 06:30 UTC
Ветер 4 Узел от западный
Температура 27°C
Влажность 62%
Давление 1011 hPa
Видимость: 6000 м

METAR: HECA 170630Z 27004KT 6000 NSC 27/19 Q1011 NOSIG

Время: 08:44 (06:44 UTC)

Прогноз

Эта сводка был подготовлена 1 час и 44 минут назад, в 05:00 UTC
Прогноз действительный с 17-го 06 UTC до 18-го 12 UTC
Ветер 10 Узел от северо-западный
Видимость 10 км и более
небольшая облачность на высоте 2500 фута

TAF: HECA 170500Z 1706/1812 31010KT 9999 FEW025

Метеонаблюдения и прогнозы для более 4000 аэропортов (сводки METAR и TAF).

Имеющиеся станции представлены на карте желтыми и красными точками.

Чтобы увидеть название станции, наведите на нее мышь.

Затем щелкните, чтобы увидеть метеонаблюдения и метеопрогнозы.

Управление картой: чтобы увеличить масштаб, щелкните зеленые кнопки с черным крестиком; чтобы уменьшить масштаб, щелкните зеленую кнопку с тире; для просмотра соседних карт щелкайте зеленые стрелки.


METAR-TAF: